sensor_id;sensor_type;location;lat;lon;timestamp;P1;durP1;ratioP1;P2;durP2;ratioP2
32611;SDS011;19030;49.478;8.986;2023-03-17T00:01:00;12.38;;;4.55;;
32611;SDS011;19030;49.478;8.986;2023-03-17T00:03:02;37.88;;;14.85;;
32611;SDS011;19030;49.478;8.986;2023-03-17T00:07:24;15.95;;;6.72;;
32611;SDS011;19030;49.478;8.986;2023-03-17T00:09:25;15.60;;;6.15;;
32611;SDS011;19030;49.478;8.986;2023-03-17T00:11:26;12.88;;;5.78;;
32611;SDS011;19030;49.478;8.986;2023-03-17T00:13:28;16.52;;;5.82;;
32611;SDS011;19030;49.478;8.986;2023-03-17T00:15:30;12.77;;;4.72;;
32611;SDS011;19030;49.478;8.986;2023-03-17T00:17:30;10.02;;;4.72;;
32611;SDS011;19030;49.478;8.986;2023-03-17T00:19:32;9.32;;;4.07;;
32611;SDS011;19030;49.478;8.986;2023-03-17T00:21:34;10.70;;;4.70;;
32611;SDS011;19030;49.478;8.986;2023-03-17T00:23:35;11.40;;;4.13;;
32611;SDS011;19030;49.478;8.986;2023-03-17T00:25:35;8.10;;;4.18;;
32611;SDS011;19030;49.478;8.986;2023-03-17T00:27:36;18.40;;;6.65;;
32611;SDS011;19030;49.478;8.986;2023-03-17T00:29:37;13.93;;;5.55;;
32611;SDS011;19030;49.478;8.986;2023-03-17T00:31:39;16.27;;;7.18;;
32611;SDS011;19030;49.478;8.986;2023-03-17T00:33:39;16.23;;;7.45;;
32611;SDS011;19030;49.478;8.986;2023-03-17T00:35:41;16.80;;;7.40;;
32611;SDS011;19030;49.478;8.986;2023-03-17T00:37:43;17.80;;;8.20;;
32611;SDS011;19030;49.478;8.986;2023-03-17T00:39:45;17.67;;;7.35;;
32611;SDS011;19030;49.478;8.986;2023-03-17T00:41:46;12.60;;;5.25;;
32611;SDS011;19030;49.478;8.986;2023-03-17T00:43:47;13.18;;;5.47;;
32611;SDS011;19030;49.478;8.986;2023-03-17T00:45:48;12.45;;;4.93;;
32611;SDS011;19030;49.478;8.986;2023-03-17T00:47:51;12.60;;;5.47;;
32611;SDS011;19030;49.478;8.986;2023-03-17T00:49:54;13.95;;;5.28;;
32611;SDS011;19030;49.478;8.986;2023-03-17T00:51:54;14.48;;;6.57;;
32611;SDS011;19030;49.478;8.986;2023-03-17T00:53:55;12.40;;;5.40;;
32611;SDS011;19030;49.478;8.986;2023-03-17T00:55:56;12.27;;;4.50;;
32611;SDS011;19030;49.478;8.986;2023-03-17T00:57:56;11.85;;;4.93;;
32611;SDS011;19030;49.478;8.986;2023-03-17T00:59:58;11.40;;;4.53;;
32611;SDS011;19030;49.478;8.986;2023-03-17T01:02:00;9.93;;;4.55;;
32611;SDS011;19030;49.478;8.986;2023-03-17T01:04:01;9.18;;;3.80;;
32611;SDS011;19030;49.478;8.986;2023-03-17T01:06:03;14.13;;;4.80;;
32611;SDS011;19030;49.478;8.986;2023-03-17T01:08:05;10.45;;;4.05;;
32611;SDS011;19030;49.478;8.986;2023-03-17T01:10:10;12.20;;;5.45;;
32611;SDS011;19030;49.478;8.986;2023-03-17T01:12:13;10.15;;;4.03;;
32611;SDS011;19030;49.478;8.986;2023-03-17T01:14:14;9.95;;;4.15;;
32611;SDS011;19030;49.478;8.986;2023-03-17T01:16:15;11.30;;;4.40;;
32611;SDS011;19030;49.478;8.986;2023-03-17T01:18:16;10.40;;;4.10;;
32611;SDS011;19030;49.478;8.986;2023-03-17T01:20:21;9.88;;;4.30;;
32611;SDS011;19030;49.478;8.986;2023-03-17T01:22:27;9.52;;;4.10;;
32611;SDS011;19030;49.478;8.986;2023-03-17T01:24:28;10.10;;;3.88;;
32611;SDS011;19030;49.478;8.986;2023-03-17T01:26:28;8.07;;;3.97;;
32611;SDS011;19030;49.478;8.986;2023-03-17T01:28:29;8.15;;;4.03;;
32611;SDS011;19030;49.478;8.986;2023-03-17T01:30:36;9.13;;;3.80;;
32611;SDS011;19030;49.478;8.986;2023-03-17T01:32:38;8.32;;;3.25;;
32611;SDS011;19030;49.478;8.986;2023-03-17T01:34:38;9.88;;;3.78;;
32611;SDS011;19030;49.478;8.986;2023-03-17T01:36:39;9.02;;;3.70;;
32611;SDS011;19030;49.478;8.986;2023-03-17T01:38:40;8.68;;;4.00;;
32611;SDS011;19030;49.478;8.986;2023-03-17T01:40:42;9.48;;;3.70;;
32611;SDS011;19030;49.478;8.986;2023-03-17T01:42:50;8.68;;;3.33;;
32611;SDS011;19030;49.478;8.986;2023-03-17T01:44:57;6.57;;;3.42;;
32611;SDS011;19030;49.478;8.986;2023-03-17T01:46:59;6.93;;;3.20;;
32611;SDS011;19030;49.478;8.986;2023-03-17T01:51:27;6.07;;;2.83;;
32611;SDS011;19030;49.478;8.986;2023-03-17T01:53:32;8.30;;;3.78;;
32611;SDS011;19030;49.478;8.986;2023-03-17T01:55:34;8.90;;;3.80;;
32611;SDS011;19030;49.478;8.986;2023-03-17T01:57:37;7.18;;;3.67;;
32611;SDS011;19030;49.478;8.986;2023-03-17T02:00:23;10.98;;;3.30;;
32611;SDS011;19030;49.478;8.986;2023-03-17T02:02:20;7.55;;;3.50;;
32611;SDS011;19030;49.478;8.986;2023-03-17T02:04:25;5.50;;;2.83;;
32611;SDS011;19030;49.478;8.986;2023-03-17T02:06:26;10.27;;;3.60;;
32611;SDS011;19030;49.478;8.986;2023-03-17T02:08:26;6.47;;;3.22;;
32611;SDS011;19030;49.478;8.986;2023-03-17T02:10:27;8.25;;;3.47;;
32611;SDS011;19030;49.478;8.986;2023-03-17T02:12:28;9.35;;;3.35;;
32611;SDS011;19030;49.478;8.986;2023-03-17T02:14:29;6.60;;;3.00;;
32611;SDS011;19030;49.478;8.986;2023-03-17T02:16:30;7.22;;;3.17;;
32611;SDS011;19030;49.478;8.986;2023-03-17T02:18:31;6.30;;;3.00;;
32611;SDS011;19030;49.478;8.986;2023-03-17T02:22:34;9.95;;;3.33;;
32611;SDS011;19030;49.478;8.986;2023-03-17T02:24:39;11.30;;;3.22;;
32611;SDS011;19030;49.478;8.986;2023-03-17T02:26:43;6.45;;;2.92;;
32611;SDS011;19030;49.478;8.986;2023-03-17T02:28:46;6.43;;;2.90;;
32611;SDS011;19030;49.478;8.986;2023-03-17T02:30:47;7.47;;;3.85;;
32611;SDS011;19030;49.478;8.986;2023-03-17T02:32:49;8.68;;;3.05;;
32611;SDS011;19030;49.478;8.986;2023-03-17T02:34:49;7.47;;;3.20;;
32611;SDS011;19030;49.478;8.986;2023-03-17T02:36:51;8.60;;;3.25;;
32611;SDS011;19030;49.478;8.986;2023-03-17T02:38:52;6.55;;;3.10;;
32611;SDS011;19030;49.478;8.986;2023-03-17T02:40:52;7.03;;;2.88;;
32611;SDS011;19030;49.478;8.986;2023-03-17T02:42:53;6.03;;;2.75;;
32611;SDS011;19030;49.478;8.986;2023-03-17T02:44:54;6.00;;;3.03;;
32611;SDS011;19030;49.478;8.986;2023-03-17T02:46:54;6.20;;;3.20;;
32611;SDS011;19030;49.478;8.986;2023-03-17T02:48:55;7.35;;;3.20;;
32611;SDS011;19030;49.478;8.986;2023-03-17T02:50:56;7.38;;;2.90;;
32611;SDS011;19030;49.478;8.986;2023-03-17T02:52:57;7.95;;;3.00;;
32611;SDS011;19030;49.478;8.986;2023-03-17T02:54:57;7.25;;;2.90;;
32611;SDS011;19030;49.478;8.986;2023-03-17T02:56:58;8.32;;;3.13;;
32611;SDS011;19030;49.478;8.986;2023-03-17T02:59:00;6.97;;;3.00;;
32611;SDS011;19030;49.478;8.986;2023-03-17T03:01:00;7.10;;;2.80;;
32611;SDS011;19030;49.478;8.986;2023-03-17T03:03:01;7.20;;;2.80;;
32611;SDS011;19030;49.478;8.986;2023-03-17T03:05:02;5.88;;;2.80;;
32611;SDS011;19030;49.478;8.986;2023-03-17T03:07:03;7.00;;;3.10;;
32611;SDS011;19030;49.478;8.986;2023-03-17T03:09:04;5.30;;;2.85;;
32611;SDS011;19030;49.478;8.986;2023-03-17T03:11:05;8.15;;;3.28;;
32611;SDS011;19030;49.478;8.986;2023-03-17T03:13:06;12.10;;;3.30;;
32611;SDS011;19030;49.478;8.986;2023-03-17T03:15:07;8.75;;;3.78;;
32611;SDS011;19030;49.478;8.986;2023-03-17T03:17:08;6.65;;;2.95;;
32611;SDS011;19030;49.478;8.986;2023-03-17T03:19:09;6.07;;;2.75;;
32611;SDS011;19030;49.478;8.986;2023-03-17T03:21:10;6.97;;;3.05;;
32611;SDS011;19030;49.478;8.986;2023-03-17T03:23:11;7.30;;;3.00;;
32611;SDS011;19030;49.478;8.986;2023-03-17T03:25:12;5.60;;;3.08;;
32611;SDS011;19030;49.478;8.986;2023-03-17T03:27:12;8.45;;;3.15;;
32611;SDS011;19030;49.478;8.986;2023-03-17T03:29:13;6.93;;;2.70;;
32611;SDS011;19030;49.478;8.986;2023-03-17T03:31:14;5.60;;;2.85;;
32611;SDS011;19030;49.478;8.986;2023-03-17T03:33:15;4.63;;;2.63;;
32611;SDS011;19030;49.478;8.986;2023-03-17T03:35:16;5.93;;;3.05;;
32611;SDS011;19030;49.478;8.986;2023-03-17T03:37:16;6.00;;;3.13;;
32611;SDS011;19030;49.478;8.986;2023-03-17T03:39:17;6.15;;;3.28;;
32611;SDS011;19030;49.478;8.986;2023-03-17T03:41:17;6.03;;;2.95;;
32611;SDS011;19030;49.478;8.986;2023-03-17T03:43:18;6.13;;;3.05;;
32611;SDS011;19030;49.478;8.986;2023-03-17T03:45:19;7.10;;;3.10;;
32611;SDS011;19030;49.478;8.986;2023-03-17T03:47:20;9.18;;;3.40;;
32611;SDS011;19030;49.478;8.986;2023-03-17T03:49:20;6.45;;;3.28;;
32611;SDS011;19030;49.478;8.986;2023-03-17T03:51:21;6.85;;;3.00;;
32611;SDS011;19030;49.478;8.986;2023-03-17T03:53:22;6.43;;;3.08;;
32611;SDS011;19030;49.478;8.986;2023-03-17T03:55:23;5.25;;;2.83;;
32611;SDS011;19030;49.478;8.986;2023-03-17T03:57:23;5.85;;;2.85;;
32611;SDS011;19030;49.478;8.986;2023-03-17T03:59:24;7.68;;;3.03;;
32611;SDS011;19030;49.478;8.986;2023-03-17T04:01:24;7.72;;;3.15;;
32611;SDS011;19030;49.478;8.986;2023-03-17T04:03:26;4.72;;;2.50;;
32611;SDS011;19030;49.478;8.986;2023-03-17T04:05:26;8.05;;;3.05;;
32611;SDS011;19030;49.478;8.986;2023-03-17T04:07:27;6.40;;;2.80;;
32611;SDS011;19030;49.478;8.986;2023-03-17T04:09:28;5.97;;;2.67;;
32611;SDS011;19030;49.478;8.986;2023-03-17T04:11:29;8.13;;;2.90;;
32611;SDS011;19030;49.478;8.986;2023-03-17T04:13:29;6.40;;;2.85;;
32611;SDS011;19030;49.478;8.986;2023-03-17T04:15:30;7.93;;;3.42;;
32611;SDS011;19030;49.478;8.986;2023-03-17T04:17:30;7.00;;;3.10;;
32611;SDS011;19030;49.478;8.986;2023-03-17T04:19:31;6.60;;;2.97;;
32611;SDS011;19030;49.478;8.986;2023-03-17T04:21:32;6.32;;;2.88;;
32611;SDS011;19030;49.478;8.986;2023-03-17T04:23:32;6.38;;;2.88;;
32611;SDS011;19030;49.478;8.986;2023-03-17T04:25:33;7.32;;;2.95;;
32611;SDS011;19030;49.478;8.986;2023-03-17T04:27:34;10.82;;;3.25;;
32611;SDS011;19030;49.478;8.986;2023-03-17T04:29:35;6.35;;;3.20;;
32611;SDS011;19030;49.478;8.986;2023-03-17T04:31:35;5.30;;;2.78;;
32611;SDS011;19030;49.478;8.986;2023-03-17T04:33:36;8.60;;;2.70;;
32611;SDS011;19030;49.478;8.986;2023-03-17T04:35:37;5.72;;;2.97;;
32611;SDS011;19030;49.478;8.986;2023-03-17T04:37:37;7.82;;;2.53;;
32611;SDS011;19030;49.478;8.986;2023-03-17T04:39:38;5.80;;;3.00;;
32611;SDS011;19030;49.478;8.986;2023-03-17T04:41:39;6.45;;;3.00;;
32611;SDS011;19030;49.478;8.986;2023-03-17T04:43:40;5.80;;;3.00;;
32611;SDS011;19030;49.478;8.986;2023-03-17T04:45:41;8.50;;;3.22;;
32611;SDS011;19030;49.478;8.986;2023-03-17T04:47:41;5.10;;;2.70;;
32611;SDS011;19030;49.478;8.986;2023-03-17T04:49:44;6.03;;;2.92;;
32611;SDS011;19030;49.478;8.986;2023-03-17T04:51:45;6.63;;;2.88;;
32611;SDS011;19030;49.478;8.986;2023-03-17T04:53:46;4.97;;;2.63;;
32611;SDS011;19030;49.478;8.986;2023-03-17T04:55:47;6.97;;;3.33;;
32611;SDS011;19030;49.478;8.986;2023-03-17T04:57:48;11.43;;;3.13;;
32611;SDS011;19030;49.478;8.986;2023-03-17T04:59:49;5.85;;;2.83;;
32611;SDS011;19030;49.478;8.986;2023-03-17T05:01:49;4.97;;;2.97;;
32611;SDS011;19030;49.478;8.986;2023-03-17T05:03:50;12.82;;;2.90;;
32611;SDS011;19030;49.478;8.986;2023-03-17T05:05:51;5.47;;;2.83;;
32611;SDS011;19030;49.478;8.986;2023-03-17T05:07:52;6.72;;;3.88;;
32611;SDS011;19030;49.478;8.986;2023-03-17T05:09:53;8.85;;;3.30;;
32611;SDS011;19030;49.478;8.986;2023-03-17T05:11:53;5.70;;;2.90;;
32611;SDS011;19030;49.478;8.986;2023-03-17T05:13:54;4.90;;;2.90;;
32611;SDS011;19030;49.478;8.986;2023-03-17T05:15:56;9.18;;;3.63;;
32611;SDS011;19030;49.478;8.986;2023-03-17T05:17:58;5.82;;;2.88;;
32611;SDS011;19030;49.478;8.986;2023-03-17T05:19:58;7.20;;;3.15;;
32611;SDS011;19030;49.478;8.986;2023-03-17T05:21:59;7.45;;;3.10;;
32611;SDS011;19030;49.478;8.986;2023-03-17T05:24:00;5.55;;;2.83;;
32611;SDS011;19030;49.478;8.986;2023-03-17T05:26:00;5.07;;;2.85;;
32611;SDS011;19030;49.478;8.986;2023-03-17T05:28:01;7.07;;;3.03;;
32611;SDS011;19030;49.478;8.986;2023-03-17T05:30:02;5.45;;;2.95;;
32611;SDS011;19030;49.478;8.986;2023-03-17T05:32:03;7.75;;;2.63;;
32611;SDS011;19030;49.478;8.986;2023-03-17T05:34:04;6.38;;;3.10;;
32611;SDS011;19030;49.478;8.986;2023-03-17T05:36:05;5.15;;;2.80;;
32611;SDS011;19030;49.478;8.986;2023-03-17T05:38:06;7.25;;;3.10;;
32611;SDS011;19030;49.478;8.986;2023-03-17T05:40:08;7.18;;;4.10;;
32611;SDS011;19030;49.478;8.986;2023-03-17T05:42:11;6.88;;;3.03;;
32611;SDS011;19030;49.478;8.986;2023-03-17T05:44:12;4.90;;;3.05;;
32611;SDS011;19030;49.478;8.986;2023-03-17T05:46:12;7.18;;;3.00;;
32611;SDS011;19030;49.478;8.986;2023-03-17T05:48:13;8.70;;;3.30;;
32611;SDS011;19030;49.478;8.986;2023-03-17T05:50:14;6.70;;;2.92;;
32611;SDS011;19030;49.478;8.986;2023-03-17T05:52:14;7.15;;;3.47;;
32611;SDS011;19030;49.478;8.986;2023-03-17T05:54:15;5.53;;;3.33;;
32611;SDS011;19030;49.478;8.986;2023-03-17T05:56:15;7.13;;;3.42;;
32611;SDS011;19030;49.478;8.986;2023-03-17T05:58:16;9.10;;;2.78;;
32611;SDS011;19030;49.478;8.986;2023-03-17T06:00:17;6.43;;;3.30;;
32611;SDS011;19030;49.478;8.986;2023-03-17T06:02:19;6.78;;;3.20;;
32611;SDS011;19030;49.478;8.986;2023-03-17T06:04:20;8.35;;;3.80;;
32611;SDS011;19030;49.478;8.986;2023-03-17T06:06:21;7.25;;;3.33;;
32611;SDS011;19030;49.478;8.986;2023-03-17T06:08:23;5.10;;;3.03;;
32611;SDS011;19030;49.478;8.986;2023-03-17T06:10:24;7.88;;;3.50;;
32611;SDS011;19030;49.478;8.986;2023-03-17T06:12:24;7.50;;;3.30;;
32611;SDS011;19030;49.478;8.986;2023-03-17T06:14:25;6.00;;;3.30;;
32611;SDS011;19030;49.478;8.986;2023-03-17T06:16:26;5.43;;;2.90;;
32611;SDS011;19030;49.478;8.986;2023-03-17T06:18:29;7.70;;;3.50;;
32611;SDS011;19030;49.478;8.986;2023-03-17T06:20:30;6.93;;;3.97;;
32611;SDS011;19030;49.478;8.986;2023-03-17T06:22:32;6.65;;;3.50;;
32611;SDS011;19030;49.478;8.986;2023-03-17T06:24:32;7.78;;;3.67;;
32611;SDS011;19030;49.478;8.986;2023-03-17T06:26:33;7.78;;;3.30;;
32611;SDS011;19030;49.478;8.986;2023-03-17T06:28:36;7.15;;;3.47;;
32611;SDS011;19030;49.478;8.986;2023-03-17T06:30:36;9.65;;;3.65;;
32611;SDS011;19030;49.478;8.986;2023-03-17T06:32:37;6.50;;;3.42;;
32611;SDS011;19030;49.478;8.986;2023-03-17T06:34:37;6.53;;;3.33;;
32611;SDS011;19030;49.478;8.986;2023-03-17T06:36:38;8.13;;;3.22;;
32611;SDS011;19030;49.478;8.986;2023-03-17T06:38:40;7.97;;;3.65;;
32611;SDS011;19030;49.478;8.986;2023-03-17T06:40:43;6.85;;;3.13;;
32611;SDS011;19030;49.478;8.986;2023-03-17T06:42:43;5.25;;;2.80;;
32611;SDS011;19030;49.478;8.986;2023-03-17T06:44:44;5.45;;;2.60;;
32611;SDS011;19030;49.478;8.986;2023-03-17T06:46:45;7.30;;;3.30;;
32611;SDS011;19030;49.478;8.986;2023-03-17T06:48:45;5.20;;;2.75;;
32611;SDS011;19030;49.478;8.986;2023-03-17T06:50:46;5.88;;;2.67;;
32611;SDS011;19030;49.478;8.986;2023-03-17T06:52:48;5.55;;;3.13;;
32611;SDS011;19030;49.478;8.986;2023-03-17T06:54:48;8.90;;;3.00;;
32611;SDS011;19030;49.478;8.986;2023-03-17T06:56:49;4.75;;;2.92;;
32611;SDS011;19030;49.478;8.986;2023-03-17T06:58:50;4.47;;;2.70;;
32611;SDS011;19030;49.478;8.986;2023-03-17T07:00:51;4.22;;;2.45;;
32611;SDS011;19030;49.478;8.986;2023-03-17T07:02:53;5.38;;;2.90;;
32611;SDS011;19030;49.478;8.986;2023-03-17T07:04:53;4.55;;;2.72;;
32611;SDS011;19030;49.478;8.986;2023-03-17T07:06:56;4.38;;;2.58;;
32611;SDS011;19030;49.478;8.986;2023-03-17T07:08:57;7.72;;;2.80;;
32611;SDS011;19030;49.478;8.986;2023-03-17T07:10:57;7.05;;;3.33;;
32611;SDS011;19030;49.478;8.986;2023-03-17T07:12:58;5.47;;;2.97;;
32611;SDS011;19030;49.478;8.986;2023-03-17T07:14:59;7.40;;;2.88;;
32611;SDS011;19030;49.478;8.986;2023-03-17T07:17:00;6.07;;;3.25;;
32611;SDS011;19030;49.478;8.986;2023-03-17T07:19:05;5.75;;;3.00;;
32611;SDS011;19030;49.478;8.986;2023-03-17T07:21:06;5.15;;;3.08;;
32611;SDS011;19030;49.478;8.986;2023-03-17T07:23:08;8.45;;;3.22;;
32611;SDS011;19030;49.478;8.986;2023-03-17T07:25:13;4.82;;;2.70;;
32611;SDS011;19030;49.478;8.986;2023-03-17T07:27:14;5.25;;;2.75;;
32611;SDS011;19030;49.478;8.986;2023-03-17T07:29:15;5.43;;;3.13;;
32611;SDS011;19030;49.478;8.986;2023-03-17T07:31:16;8.45;;;3.90;;
32611;SDS011;19030;49.478;8.986;2023-03-17T07:33:17;7.78;;;3.53;;
32611;SDS011;19030;49.478;8.986;2023-03-17T07:35:21;7.90;;;3.63;;
32611;SDS011;19030;49.478;8.986;2023-03-17T07:37:22;10.45;;;3.70;;
32611;SDS011;19030;49.478;8.986;2023-03-17T07:39:23;8.68;;;3.80;;
32611;SDS011;19030;49.478;8.986;2023-03-17T07:41:23;7.25;;;3.28;;
32611;SDS011;19030;49.478;8.986;2023-03-17T07:43:24;9.85;;;3.88;;
32611;SDS011;19030;49.478;8.986;2023-03-17T07:45:25;10.73;;;5.25;;
32611;SDS011;19030;49.478;8.986;2023-03-17T07:47:26;8.80;;;4.78;;
32611;SDS011;19030;49.478;8.986;2023-03-17T07:49:27;13.48;;;6.05;;
32611;SDS011;19030;49.478;8.986;2023-03-17T07:51:27;12.70;;;5.75;;
32611;SDS011;19030;49.478;8.986;2023-03-17T07:53:28;12.50;;;4.60;;
32611;SDS011;19030;49.478;8.986;2023-03-17T07:55:30;8.38;;;4.00;;
32611;SDS011;19030;49.478;8.986;2023-03-17T07:57:31;12.52;;;4.80;;
32611;SDS011;19030;49.478;8.986;2023-03-17T07:59:32;11.70;;;4.90;;
32611;SDS011;19030;49.478;8.986;2023-03-17T08:01:34;10.63;;;4.95;;
32611;SDS011;19030;49.478;8.986;2023-03-17T08:03:34;12.05;;;5.35;;
32611;SDS011;19030;49.478;8.986;2023-03-17T08:05:35;15.93;;;6.05;;
32611;SDS011;19030;49.478;8.986;2023-03-17T08:07:36;19.50;;;8.30;;
32611;SDS011;19030;49.478;8.986;2023-03-17T08:09:37;14.70;;;5.57;;
32611;SDS011;19030;49.478;8.986;2023-03-17T08:11:38;9.10;;;4.53;;
32611;SDS011;19030;49.478;8.986;2023-03-17T08:13:39;8.88;;;4.32;;
32611;SDS011;19030;49.478;8.986;2023-03-17T08:15:39;8.15;;;3.45;;
32611;SDS011;19030;49.478;8.986;2023-03-17T08:17:40;6.38;;;3.50;;
32611;SDS011;19030;49.478;8.986;2023-03-17T08:19:41;8.32;;;4.10;;
32611;SDS011;19030;49.478;8.986;2023-03-17T08:21:42;8.25;;;4.18;;
32611;SDS011;19030;49.478;8.986;2023-03-17T08:23:43;11.68;;;3.83;;
32611;SDS011;19030;49.478;8.986;2023-03-17T08:25:43;8.00;;;3.42;;
32611;SDS011;19030;49.478;8.986;2023-03-17T08:27:44;6.80;;;3.58;;
32611;SDS011;19030;49.478;8.986;2023-03-17T08:29:45;6.75;;;3.53;;
32611;SDS011;19030;49.478;8.986;2023-03-17T08:31:47;7.25;;;3.50;;
32611;SDS011;19030;49.478;8.986;2023-03-17T08:33:48;8.05;;;3.25;;
32611;SDS011;19030;49.478;8.986;2023-03-17T08:35:50;7.43;;;4.00;;
32611;SDS011;19030;49.478;8.986;2023-03-17T08:37:51;8.20;;;4.00;;
32611;SDS011;19030;49.478;8.986;2023-03-17T08:39:51;5.40;;;3.40;;
32611;SDS011;19030;49.478;8.986;2023-03-17T08:41:52;7.20;;;4.00;;
32611;SDS011;19030;49.478;8.986;2023-03-17T08:43:53;6.90;;;3.75;;
32611;SDS011;19030;49.478;8.986;2023-03-17T08:45:58;6.95;;;3.70;;
32611;SDS011;19030;49.478;8.986;2023-03-17T08:48:20;7.35;;;3.63;;
32611;SDS011;19030;49.478;8.986;2023-03-17T08:50:21;6.90;;;3.78;;
32611;SDS011;19030;49.478;8.986;2023-03-17T08:52:22;8.23;;;4.07;;
32611;SDS011;19030;49.478;8.986;2023-03-17T08:54:23;8.05;;;3.63;;
32611;SDS011;19030;49.478;8.986;2023-03-17T08:56:24;7.75;;;3.65;;
32611;SDS011;19030;49.478;8.986;2023-03-17T08:58:25;6.75;;;3.60;;
32611;SDS011;19030;49.478;8.986;2023-03-17T09:00:26;7.55;;;3.72;;
32611;SDS011;19030;49.478;8.986;2023-03-17T09:02:27;5.53;;;3.40;;
32611;SDS011;19030;49.478;8.986;2023-03-17T09:04:28;7.40;;;4.47;;
32611;SDS011;19030;49.478;8.986;2023-03-17T09:06:29;6.25;;;3.78;;
32611;SDS011;19030;49.478;8.986;2023-03-17T09:08:30;7.75;;;4.22;;
32611;SDS011;19030;49.478;8.986;2023-03-17T09:10:31;7.93;;;4.43;;
32611;SDS011;19030;49.478;8.986;2023-03-17T09:12:32;7.47;;;4.55;;
32611;SDS011;19030;49.478;8.986;2023-03-17T09:14:33;8.63;;;4.53;;
32611;SDS011;19030;49.478;8.986;2023-03-17T09:16:34;6.50;;;4.07;;
32611;SDS011;19030;49.478;8.986;2023-03-17T09:18:35;7.78;;;4.47;;
32611;SDS011;19030;49.478;8.986;2023-03-17T09:20:36;7.15;;;4.40;;
32611;SDS011;19030;49.478;8.986;2023-03-17T09:22:37;10.90;;;5.10;;
32611;SDS011;19030;49.478;8.986;2023-03-17T09:24:37;9.57;;;5.00;;
32611;SDS011;19030;49.478;8.986;2023-03-17T09:26:38;8.07;;;5.00;;
32611;SDS011;19030;49.478;8.986;2023-03-17T09:28:38;8.13;;;4.93;;
32611;SDS011;19030;49.478;8.986;2023-03-17T09:30:39;6.38;;;4.50;;
32611;SDS011;19030;49.478;8.986;2023-03-17T09:32:41;8.65;;;4.95;;
32611;SDS011;19030;49.478;8.986;2023-03-17T09:34:43;8.55;;;5.38;;
32611;SDS011;19030;49.478;8.986;2023-03-17T09:36:45;7.88;;;4.85;;
32611;SDS011;19030;49.478;8.986;2023-03-17T09:38:45;7.78;;;5.18;;
32611;SDS011;19030;49.478;8.986;2023-03-17T09:40:47;8.93;;;5.80;;
32611;SDS011;19030;49.478;8.986;2023-03-17T09:43:04;10.52;;;7.22;;
32611;SDS011;19030;49.478;8.986;2023-03-17T09:45:11;10.43;;;9.07;;
32611;SDS011;19030;49.478;8.986;2023-03-17T09:47:26;13.50;;;10.70;;
32611;SDS011;19030;49.478;8.986;2023-03-17T09:49:50;14.00;;;12.70;;
32611;SDS011;19030;49.478;8.986;2023-03-17T09:51:54;13.33;;;12.03;;
32611;SDS011;19030;49.478;8.986;2023-03-17T09:53:59;13.93;;;12.63;;
32611;SDS011;19030;49.478;8.986;2023-03-17T09:58:10;13.40;;;12.20;;
32611;SDS011;19030;49.478;8.986;2023-03-17T10:02:20;11.88;;;10.77;;
32611;SDS011;19030;49.478;8.986;2023-03-17T10:04:24;14.07;;;12.77;;
32611;SDS011;19030;49.478;8.986;2023-03-17T10:08:47;10.85;;;9.52;;
32611;SDS011;19030;49.478;8.986;2023-03-17T10:10:59;13.35;;;12.07;;
32611;SDS011;19030;49.478;8.986;2023-03-17T10:15:49;11.57;;;10.38;;
32611;SDS011;19030;49.478;8.986;2023-03-17T10:17:59;8.45;;;7.55;;
32611;SDS011;19030;49.478;8.986;2023-03-17T10:20:03;8.82;;;6.82;;
32611;SDS011;19030;49.478;8.986;2023-03-17T10:24:28;10.43;;;5.28;;
32611;SDS011;19030;49.478;8.986;2023-03-17T10:26:32;7.75;;;5.25;;
32611;SDS011;19030;49.478;8.986;2023-03-17T10:28:40;8.27;;;5.20;;
32611;SDS011;19030;49.478;8.986;2023-03-17T10:30:41;8.35;;;5.13;;
32611;SDS011;19030;49.478;8.986;2023-03-17T10:32:43;7.15;;;5.30;;
32611;SDS011;19030;49.478;8.986;2023-03-17T10:34:44;7.75;;;5.22;;
32611;SDS011;19030;49.478;8.986;2023-03-17T10:36:48;9.63;;;4.88;;
32611;SDS011;19030;49.478;8.986;2023-03-17T10:40:56;7.28;;;4.80;;
32611;SDS011;19030;49.478;8.986;2023-03-17T10:43:02;6.88;;;4.68;;
32611;SDS011;19030;49.478;8.986;2023-03-17T10:47:32;10.02;;;5.25;;
32611;SDS011;19030;49.478;8.986;2023-03-17T10:49:36;8.20;;;4.65;;
32611;SDS011;19030;49.478;8.986;2023-03-17T10:51:37;8.32;;;4.60;;
32611;SDS011;19030;49.478;8.986;2023-03-17T10:53:39;8.00;;;4.82;;
32611;SDS011;19030;49.478;8.986;2023-03-17T10:55:48;7.18;;;4.53;;
32611;SDS011;19030;49.478;8.986;2023-03-17T10:58:34;9.10;;;4.70;;
32611;SDS011;19030;49.478;8.986;2023-03-17T11:00:17;6.00;;;4.25;;
32611;SDS011;19030;49.478;8.986;2023-03-17T11:02:34;7.57;;;4.32;;
32611;SDS011;19030;49.478;8.986;2023-03-17T11:04:41;7.30;;;4.90;;
32611;SDS011;19030;49.478;8.986;2023-03-17T11:06:42;6.10;;;4.28;;
32611;SDS011;19030;49.478;8.986;2023-03-17T11:08:48;7.30;;;4.55;;
32611;SDS011;19030;49.478;8.986;2023-03-17T11:12:59;9.10;;;4.43;;
32611;SDS011;19030;49.478;8.986;2023-03-17T11:15:01;7.85;;;4.47;;
32611;SDS011;19030;49.478;8.986;2023-03-17T11:17:26;6.85;;;4.55;;
32611;SDS011;19030;49.478;8.986;2023-03-17T11:19:35;7.07;;;4.15;;
32611;SDS011;19030;49.478;8.986;2023-03-17T11:21:53;8.57;;;4.53;;
32611;SDS011;19030;49.478;8.986;2023-03-17T11:24:14;9.18;;;4.22;;
32611;SDS011;19030;49.478;8.986;2023-03-17T11:26:32;10.15;;;4.43;;
32611;SDS011;19030;49.478;8.986;2023-03-17T11:28:49;6.63;;;4.00;;
32611;SDS011;19030;49.478;8.986;2023-03-17T11:31:42;6.72;;;4.00;;
32611;SDS011;19030;49.478;8.986;2023-03-17T11:37:58;6.35;;;3.65;;
32611;SDS011;19030;49.478;8.986;2023-03-17T11:40:18;6.53;;;4.70;;
32611;SDS011;19030;49.478;8.986;2023-03-17T11:42:37;7.43;;;5.50;;
32611;SDS011;19030;49.478;8.986;2023-03-17T11:49:37;9.05;;;6.43;;
32611;SDS011;19030;49.478;8.986;2023-03-17T11:51:47;8.35;;;6.32;;
32611;SDS011;19030;49.478;8.986;2023-03-17T11:56:39;7.55;;;6.70;;
32611;SDS011;19030;49.478;8.986;2023-03-17T11:59:09;7.10;;;5.70;;
32611;SDS011;19030;49.478;8.986;2023-03-17T12:01:14;6.82;;;5.20;;
32611;SDS011;19030;49.478;8.986;2023-03-17T12:05:24;7.40;;;6.38;;
32611;SDS011;19030;49.478;8.986;2023-03-17T12:07:31;7.88;;;6.22;;
32611;SDS011;19030;49.478;8.986;2023-03-17T12:09:39;7.82;;;6.60;;
32611;SDS011;19030;49.478;8.986;2023-03-17T12:11:44;7.15;;;6.07;;
32611;SDS011;19030;49.478;8.986;2023-03-17T12:13:47;8.93;;;6.45;;
32611;SDS011;19030;49.478;8.986;2023-03-17T12:16:14;8.05;;;6.60;;
32611;SDS011;19030;49.478;8.986;2023-03-17T12:20:33;7.65;;;6.05;;
32611;SDS011;19030;49.478;8.986;2023-03-17T12:23:02;8.73;;;5.93;;
32611;SDS011;19030;49.478;8.986;2023-03-17T12:27:23;6.50;;;4.70;;
32611;SDS011;19030;49.478;8.986;2023-03-17T12:31:56;8.20;;;6.50;;
32611;SDS011;19030;49.478;8.986;2023-03-17T12:36:21;8.30;;;6.82;;
32611;SDS011;19030;49.478;8.986;2023-03-17T12:38:24;11.07;;;6.45;;
32611;SDS011;19030;49.478;8.986;2023-03-17T12:40:36;9.65;;;7.40;;
32611;SDS011;19030;49.478;8.986;2023-03-17T12:42:49;10.80;;;8.15;;
32611;SDS011;19030;49.478;8.986;2023-03-17T12:45:05;9.77;;;7.45;;
32611;SDS011;19030;49.478;8.986;2023-03-17T12:47:38;6.28;;;3.55;;
32611;SDS011;19030;49.478;8.986;2023-03-17T12:52:30;11.30;;;6.45;;
32611;SDS011;19030;49.478;8.986;2023-03-17T12:54:35;8.20;;;6.93;;
32611;SDS011;19030;49.478;8.986;2023-03-17T12:56:41;7.80;;;6.60;;
32611;SDS011;19030;49.478;8.986;2023-03-17T12:58:47;7.40;;;5.38;;
32611;SDS011;19030;49.478;8.986;2023-03-17T13:03:25;7.35;;;5.15;;
32611;SDS011;19030;49.478;8.986;2023-03-17T13:05:29;7.25;;;5.65;;
32611;SDS011;19030;49.478;8.986;2023-03-17T13:07:32;7.78;;;4.90;;
32611;SDS011;19030;49.478;8.986;2023-03-17T13:11:53;7.30;;;5.30;;
32611;SDS011;19030;49.478;8.986;2023-03-17T13:13:55;7.30;;;4.90;;
32611;SDS011;19030;49.478;8.986;2023-03-17T13:16:06;6.68;;;5.13;;